sensor_id;sensor_type;location;lat;lon;timestamp;pressure;altitude;pressure_sealevel;temperature;humidity
20228;BME280;12195;55.790;37.572;2023-02-03T00:02:08;99044.08;;;1.62;72.89
20228;BME280;12195;55.790;37.572;2023-02-03T00:04:41;99044.08;;;1.62;73.13
20228;BME280;12195;55.790;37.572;2023-02-03T00:07:14;99044.08;;;1.62;72.97
20228;BME280;12195;55.790;37.572;2023-02-03T00:09:46;99048.39;;;1.63;72.79
20228;BME280;12195;55.790;37.572;2023-02-03T00:12:18;99049.25;;;1.62;72.89
20228;BME280;12195;55.790;37.572;2023-02-03T00:14:50;99040.70;;;1.60;72.86
20228;BME280;12195;55.790;37.572;2023-02-03T00:17:23;99044.19;;;1.59;73.07
20228;BME280;12195;55.790;37.572;2023-02-03T00:19:55;99045.88;;;1.60;73.13
20228;BME280;12195;55.790;37.572;2023-02-03T00:22:27;99040.70;;;1.60;73.28
20228;BME280;12195;55.790;37.572;2023-02-03T00:24:59;99044.04;;;1.63;72.83
20228;BME280;12195;55.790;37.572;2023-02-03T00:27:32;99038.08;;;1.61;73.14
20228;BME280;12195;55.790;37.572;2023-02-03T00:30:04;99038.08;;;1.61;73.17
20228;BME280;12195;55.790;37.572;2023-02-03T00:32:36;99044.94;;;1.62;73.02
20228;BME280;12195;55.790;37.572;2023-02-03T00:35:08;99042.39;;;1.61;72.80
20228;BME280;12195;55.790;37.572;2023-02-03T00:37:40;99038.98;;;1.60;73.07
20228;BME280;12195;55.790;37.572;2023-02-03T00:40:13;99050.11;;;1.62;73.01
20228;BME280;12195;55.790;37.572;2023-02-03T00:42:45;99045.88;;;1.60;73.25
20228;BME280;12195;55.790;37.572;2023-02-03T00:45:17;99052.73;;;1.61;73.28
20228;BME280;12195;55.790;37.572;2023-02-03T00:47:50;99045.84;;;1.61;73.07
20228;BME280;12195;55.790;37.572;2023-02-03T00:50:22;99053.56;;;1.63;73.37
20228;BME280;12195;55.790;37.572;2023-02-03T00:52:55;99049.21;;;1.63;73.36
20228;BME280;12195;55.790;37.572;2023-02-03T00:55:28;99048.34;;;1.64;73.10
20228;BME280;12195;55.790;37.572;2023-02-03T00:58:00;99044.00;;;1.65;73.28
20228;BME280;12195;55.790;37.572;2023-02-03T01:00:33;99047.48;;;1.64;73.43
20228;BME280;12195;55.790;37.572;2023-02-03T01:03:05;99045.69;;;1.66;73.69
20228;BME280;12195;55.790;37.572;2023-02-03T01:05:37;99043.02;;;1.69;73.21
20228;BME280;12195;55.790;37.572;2023-02-03T01:08:09;99046.42;;;1.71;73.15
20228;BME280;12195;55.790;37.572;2023-02-03T01:10:42;99038.66;;;1.71;73.48
20228;BME280;12195;55.790;37.572;2023-02-03T01:13:14;99040.34;;;1.72;73.26
20228;BME280;12195;55.790;37.572;2023-02-03T01:15:46;99036.00;;;1.72;72.93
20228;BME280;12195;55.790;37.572;2023-02-03T01:18:19;99040.39;;;1.70;73.43
20228;BME280;12195;55.790;37.572;2023-02-03T01:20:52;99036.86;;;1.73;73.60
20228;BME280;12195;55.790;37.572;2023-02-03T01:23:24;99038.54;;;1.74;73.29
20228;BME280;12195;55.790;37.572;2023-02-03T01:25:56;99036.00;;;1.72;73.25
20228;BME280;12195;55.790;37.572;2023-02-03T01:28:28;99035.17;;;1.72;73.36
20228;BME280;12195;55.790;37.572;2023-02-03T01:31:15;99038.66;;;1.71;73.53
20228;BME280;12195;55.790;37.572;2023-02-03T01:33:47;99033.48;;;1.71;73.49
20228;BME280;12195;55.790;37.572;2023-02-03T01:36:21;99041.17;;;1.72;73.50
20228;BME280;12195;55.790;37.572;2023-02-03T01:38:53;99034.27;;;1.73;73.59
20228;BME280;12195;55.790;37.572;2023-02-03T01:41:28;99031.68;;;1.73;73.37
20228;BME280;12195;55.790;37.572;2023-02-03T01:44:01;99029.99;;;1.72;73.30
20228;BME280;12195;55.790;37.572;2023-02-03T01:46:48;99033.48;;;1.71;73.47
20228;BME280;12195;55.790;37.572;2023-02-03T01:49:26;99036.89;;;1.71;73.68
20228;BME280;12195;55.790;37.572;2023-02-03T01:51:59;99037.02;;;1.68;73.96
20228;BME280;12195;55.790;37.572;2023-02-03T01:54:36;99029.25;;;1.68;74.01
20228;BME280;12195;55.790;37.572;2023-02-03T01:57:15;99041.28;;;1.69;73.80
20228;BME280;12195;55.790;37.572;2023-02-03T01:59:49;99036.11;;;1.69;73.46
20228;BME280;12195;55.790;37.572;2023-02-03T02:02:22;99028.39;;;1.68;73.61
20228;BME280;12195;55.790;37.572;2023-02-03T02:05:30;99027.53;;;1.67;73.64
20228;BME280;12195;55.790;37.572;2023-02-03T02:08:03;99026.70;;;1.67;73.60
20228;BME280;12195;55.790;37.572;2023-02-03T02:10:36;99026.70;;;1.67;73.41
20228;BME280;12195;55.790;37.572;2023-02-03T02:13:08;99028.48;;;1.65;73.78
20228;BME280;12195;55.790;37.572;2023-02-03T02:15:59;99026.79;;;1.64;73.81
20228;BME280;12195;55.790;37.572;2023-02-03T02:27:39;99019.89;;;1.64;74.02
20228;BME280;12195;55.790;37.572;2023-02-03T02:33:12;99020.80;;;1.62;74.48
20228;BME280;12195;55.790;37.572;2023-02-03T02:42:04;99011.27;;;1.64;74.45
20228;BME280;12195;55.790;37.572;2023-02-03T02:44:38;99016.36;;;1.67;74.24
20228;BME280;12195;55.790;37.572;2023-02-03T02:47:18;99012.02;;;1.67;74.42
20228;BME280;12195;55.790;37.572;2023-02-03T02:50:02;99010.33;;;1.66;74.63
20228;BME280;12195;55.790;37.572;2023-02-03T02:52:33;99009.47;;;1.66;74.75
20228;BME280;12195;55.790;37.572;2023-02-03T02:55:17;99007.73;;;1.66;74.76
20228;BME280;12195;55.790;37.572;2023-02-03T02:57:49;99010.28;;;1.68;74.91
20228;BME280;12195;55.790;37.572;2023-02-03T03:00:23;99011.02;;;1.71;74.89
20228;BME280;12195;55.790;37.572;2023-02-03T03:02:55;99010.13;;;1.72;75.03
20228;BME280;12195;55.790;37.572;2023-02-03T03:05:28;99005.77;;;1.74;74.96
20228;BME280;12195;55.790;37.572;2023-02-03T03:08:01;99007.41;;;1.77;74.87
20228;BME280;12195;55.790;37.572;2023-02-03T03:10:34;99012.50;;;1.80;74.96
20228;BME280;12195;55.790;37.572;2023-02-03T03:13:10;99014.09;;;1.84;74.76
20228;BME280;12195;55.790;37.572;2023-02-03T03:15:43;99014.38;;;2.02;74.44
20228;BME280;12195;55.790;37.572;2023-02-03T03:18:19;99012.20;;;1.89;74.31
20228;BME280;12195;55.790;37.572;2023-02-03T03:20:53;99015.70;;;1.88;74.83
20228;BME280;12195;55.790;37.572;2023-02-03T03:23:29;99011.34;;;1.88;74.88
20228;BME280;12195;55.790;37.572;2023-02-03T03:26:22;99011.30;;;1.90;74.88
20228;BME280;12195;55.790;37.572;2023-02-03T03:28:50;99016.39;;;1.93;74.56
20228;BME280;12195;55.790;37.572;2023-02-03T03:31:17;99015.49;;;1.94;74.52
20228;BME280;12195;55.790;37.572;2023-02-03T03:33:50;99011.13;;;1.96;74.72
20228;BME280;12195;55.790;37.572;2023-02-03T03:36:25;99012.00;;;1.95;74.83
20228;BME280;12195;55.790;37.572;2023-02-03T03:41:53;99018.77;;;1.99;74.93
20228;BME280;12195;55.790;37.572;2023-02-03T03:44:22;99009.23;;;2.01;75.10
20228;BME280;12195;55.790;37.572;2023-02-03T03:47:11;99010.09;;;2.01;75.04
20228;BME280;12195;55.790;37.572;2023-02-03T03:49:42;99008.24;;;2.05;74.94
20228;BME280;12195;55.790;37.572;2023-02-03T03:52:25;99010.70;;;2.09;74.92
20228;BME280;12195;55.790;37.572;2023-02-03T03:54:51;99007.20;;;2.10;74.71
20228;BME280;12195;55.790;37.572;2023-02-03T03:57:34;99007.16;;;2.12;74.75
20228;BME280;12195;55.790;37.572;2023-02-03T04:00:03;99012.30;;;2.13;74.73
20228;BME280;12195;55.790;37.572;2023-02-03T04:02:39;99008.80;;;2.14;74.85
20228;BME280;12195;55.790;37.572;2023-02-03T04:05:13;99013.03;;;2.17;74.76
20228;BME280;12195;55.790;37.572;2023-02-03T04:07:46;99012.17;;;2.16;74.75
20228;BME280;12195;55.790;37.572;2023-02-03T04:10:44;99011.22;;;2.19;74.82
20228;BME280;12195;55.790;37.572;2023-02-03T04:13:00;99008.68;;;2.17;75.28
20228;BME280;12195;55.790;37.572;2023-02-03T04:15:33;99017.22;;;2.21;75.13
20228;BME280;12195;55.790;37.572;2023-02-03T04:18:06;99012.82;;;2.23;74.94
20228;BME280;12195;55.790;37.572;2023-02-03T04:20:39;99011.05;;;2.25;74.97
20228;BME280;12195;55.790;37.572;2023-02-03T04:23:12;99004.91;;;2.27;74.82
20228;BME280;12195;55.790;37.572;2023-02-03T04:25:44;99011.00;;;2.26;75.01
20228;BME280;12195;55.790;37.572;2023-02-03T04:28:17;99010.09;;;2.27;75.10
20228;BME280;12195;55.790;37.572;2023-02-03T04:30:50;99002.28;;;2.29;75.00
20228;BME280;12195;55.790;37.572;2023-02-03T04:33:22;99014.33;;;2.30;75.13
20228;BME280;12195;55.790;37.572;2023-02-03T04:35:55;99011.69;;;2.31;75.21
20228;BME280;12195;55.790;37.572;2023-02-03T04:38:27;99011.59;;;2.34;75.27
20228;BME280;12195;55.790;37.572;2023-02-03T04:41:00;99012.42;;;2.35;75.27
20228;BME280;12195;55.790;37.572;2023-02-03T04:43:33;99007.20;;;2.36;75.10
20228;BME280;12195;55.790;37.572;2023-02-03T04:46:06;99001.97;;;2.38;75.08
20228;BME280;12195;55.790;37.572;2023-02-03T04:48:39;99008.79;;;2.40;75.05
20228;BME280;12195;55.790;37.572;2023-02-03T04:51:12;99019.10;;;2.42;75.13
20228;BME280;12195;55.790;37.572;2023-02-03T04:53:45;99015.70;;;2.40;75.41
20228;BME280;12195;55.790;37.572;2023-02-03T04:56:17;99005.30;;;2.41;75.13
20228;BME280;12195;55.790;37.572;2023-02-03T04:58:49;99011.28;;;2.43;75.16
20228;BME280;12195;55.790;37.572;2023-02-03T05:01:22;99009.52;;;2.44;75.25
20228;BME280;12195;55.790;37.572;2023-02-03T05:03:56;99013.83;;;2.45;75.35
20228;BME280;12195;55.790;37.572;2023-02-03T05:06:29;99013.70;;;2.48;75.47
20228;BME280;12195;55.790;37.572;2023-02-03T05:09:03;99020.42;;;2.53;75.37
20228;BME280;12195;55.790;37.572;2023-02-03T05:11:36;99022.06;;;2.56;75.24
20228;BME280;12195;55.790;37.572;2023-02-03T05:14:09;99024.56;;;2.59;75.34
20228;BME280;12195;55.790;37.572;2023-02-03T05:16:41;99020.19;;;2.61;75.15
20228;BME280;12195;55.790;37.572;2023-02-03T05:19:16;99024.42;;;2.63;75.15
20228;BME280;12195;55.790;37.572;2023-02-03T05:21:49;99026.96;;;2.65;75.17
20228;BME280;12195;55.790;37.572;2023-02-03T05:24:22;99017.47;;;2.64;75.22
20228;BME280;12195;55.790;37.572;2023-02-03T05:26:56;99016.47;;;2.68;75.24
20228;BME280;12195;55.790;37.572;2023-02-03T05:29:30;99013.83;;;2.69;75.35
20228;BME280;12195;55.790;37.572;2023-02-03T05:32:03;99014.64;;;2.71;75.28
20228;BME280;12195;55.790;37.572;2023-02-03T05:34:37;99020.55;;;2.75;75.25
20228;BME280;12195;55.790;37.572;2023-02-03T05:37:12;99020.45;;;2.78;74.82
20228;BME280;12195;55.790;37.572;2023-02-03T05:39:45;99014.31;;;2.80;74.58
20228;BME280;12195;55.790;37.572;2023-02-03T05:42:18;99016.05;;;2.80;74.48
20228;BME280;12195;55.790;37.572;2023-02-03T05:44:52;99019.31;;;2.85;74.32
20228;BME280;12195;55.790;37.572;2023-02-03T05:47:24;99015.91;;;2.84;74.58
20228;BME280;12195;55.790;37.572;2023-02-03T05:49:58;99018.55;;;2.83;74.84
20228;BME280;12195;55.790;37.572;2023-02-03T05:52:32;99025.36;;;2.85;74.78
20228;BME280;12195;55.790;37.572;2023-02-03T05:55:07;99024.31;;;2.91;74.54
20228;BME280;12195;55.790;37.572;2023-02-03T05:57:40;99022.49;;;2.93;74.66
20228;BME280;12195;55.790;37.572;2023-02-03T06:00:16;99021.56;;;2.95;74.77
20228;BME280;12195;55.790;37.572;2023-02-03T06:02:56;99024.94;;;2.97;74.42
20228;BME280;12195;55.790;37.572;2023-02-03T06:05:31;99015.42;;;2.98;74.30
20228;BME280;12195;55.790;37.572;2023-02-03T06:08:06;99021.39;;;3.00;74.32
20228;BME280;12195;55.790;37.572;2023-02-03T06:10:39;99020.42;;;3.02;73.96
20228;BME280;12195;55.790;37.572;2023-02-03T06:13:14;99022.97;;;3.04;74.09
20228;BME280;12195;55.790;37.572;2023-02-03T06:15:46;99034.15;;;3.06;74.02
20228;BME280;12195;55.790;37.572;2023-02-03T06:18:19;99023.70;;;3.07;73.86
20228;BME280;12195;55.790;37.572;2023-02-03T06:20:52;99026.23;;;3.09;73.74
20228;BME280;12195;55.790;37.572;2023-02-03T06:23:25;99027.05;;;3.11;73.42
20228;BME280;12195;55.790;37.572;2023-02-03T06:25:57;99023.55;;;3.12;73.48
20228;BME280;12195;55.790;37.572;2023-02-03T06:28:30;99033.87;;;3.13;73.26
20228;BME280;12195;55.790;37.572;2023-02-03T06:31:04;99025.13;;;3.16;73.41
20228;BME280;12195;55.790;37.572;2023-02-03T06:33:37;99030.16;;;3.20;73.19
20228;BME280;12195;55.790;37.572;2023-02-03T06:36:09;99029.16;;;3.24;73.13
20228;BME280;12195;55.790;37.572;2023-02-03T06:38:42;99037.76;;;3.25;73.06
20228;BME280;12195;55.790;37.572;2023-02-03T06:41:14;99033.33;;;3.28;72.88
20228;BME280;12195;55.790;37.572;2023-02-03T06:43:46;99038.33;;;3.33;73.04
20228;BME280;12195;55.790;37.572;2023-02-03T06:46:19;99038.23;;;3.36;72.82
20228;BME280;12195;55.790;37.572;2023-02-03T06:48:52;99030.39;;;3.37;72.37
20228;BME280;12195;55.790;37.572;2023-02-03T06:51:25;99038.13;;;3.39;72.12
20228;BME280;12195;55.790;37.572;2023-02-03T06:53:59;99033.70;;;3.41;72.08
20228;BME280;12195;55.790;37.572;2023-02-03T06:56:33;99036.25;;;3.42;72.05
20228;BME280;12195;55.790;37.572;2023-02-03T06:59:06;99027.50;;;3.45;71.87
20228;BME280;12195;55.790;37.572;2023-02-03T07:01:40;99021.30;;;3.49;72.42
20228;BME280;12195;55.790;37.572;2023-02-03T07:04:13;99021.00;;;3.56;72.18
20228;BME280;12195;55.790;37.572;2023-02-03T07:06:46;99026.03;;;3.61;71.80
20228;BME280;12195;55.790;37.572;2023-02-03T07:09:18;99031.88;;;3.66;71.94
20228;BME280;12195;55.790;37.572;2023-02-03T07:11:51;99029.95;;;3.71;71.56
20228;BME280;12195;55.790;37.572;2023-02-03T07:14:23;99030.66;;;3.76;71.27
20228;BME280;12195;55.790;37.572;2023-02-03T07:16:56;99032.23;;;3.80;71.39
20228;BME280;12195;55.790;37.572;2023-02-03T07:19:29;99018.88;;;3.89;71.29
20228;BME280;12195;55.790;37.572;2023-02-03T07:22:02;99015.75;;;4.02;71.36
20228;BME280;12195;55.790;37.572;2023-02-03T07:24:35;99023.89;;;4.15;71.26
20228;BME280;12195;55.790;37.572;2023-02-03T07:27:08;99023.34;;;4.28;71.26
20228;BME280;12195;55.790;37.572;2023-02-03T07:29:42;99019.86;;;4.49;70.69
20228;BME280;12195;55.790;37.572;2023-02-03T07:32:14;99022.88;;;4.80;69.57
20228;BME280;12195;55.790;37.572;2023-02-03T07:34:47;99024.05;;;4.93;68.23
20228;BME280;12195;55.790;37.572;2023-02-03T07:37:19;99023.92;;;4.96;67.51
20228;BME280;12195;55.790;37.572;2023-02-03T07:39:51;99023.92;;;4.96;67.29
20228;BME280;12195;55.790;37.572;2023-02-03T07:42:25;99023.19;;;4.93;67.28
20228;BME280;12195;55.790;37.572;2023-02-03T07:44:58;99021.56;;;4.90;67.35
20228;BME280;12195;55.790;37.572;2023-02-03T07:47:31;99026.13;;;4.85;66.94
20228;BME280;12195;55.790;37.572;2023-02-03T07:50:04;99028.20;;;4.77;66.79
20228;BME280;12195;55.790;37.572;2023-02-03T07:52:36;99020.86;;;4.67;67.20
20228;BME280;12195;55.790;37.572;2023-02-03T07:55:09;99021.09;;;4.61;67.22
20228;BME280;12195;55.790;37.572;2023-02-03T07:57:41;99029.10;;;4.56;67.53
20228;BME280;12195;55.790;37.572;2023-02-03T08:00:16;99028.30;;;4.54;67.58
20228;BME280;12195;55.790;37.572;2023-02-03T08:02:48;99024.49;;;4.63;68.08
20228;BME280;12195;55.790;37.572;2023-02-03T08:05:21;99023.92;;;4.76;67.76
20228;BME280;12195;55.790;37.572;2023-02-03T08:07:53;99015.38;;;4.93;67.78
20228;BME280;12195;55.790;37.572;2023-02-03T08:10:25;99014.79;;;5.06;66.41
20228;BME280;12195;55.790;37.572;2023-02-03T08:12:59;99006.64;;;5.14;65.73
20228;BME280;12195;55.790;37.572;2023-02-03T08:15:32;99002.73;;;5.24;65.23
20228;BME280;12195;55.790;37.572;2023-02-03T08:18:05;99003.17;;;5.33;65.41
20228;BME280;12195;55.790;37.572;2023-02-03T08:20:39;99001.77;;;5.45;64.93
20228;BME280;12195;55.790;37.572;2023-02-03T08:23:11;99005.06;;;5.48;64.92
20228;BME280;12195;55.790;37.572;2023-02-03T08:25:44;98998.80;;;5.52;64.52
20228;BME280;12195;55.790;37.572;2023-02-03T08:28:18;98998.55;;;5.58;65.16
20228;BME280;12195;55.790;37.572;2023-02-03T08:30:51;99002.03;;;5.57;64.29
20228;BME280;12195;55.790;37.572;2023-02-03T08:33:24;98995.15;;;5.56;63.90
20228;BME280;12195;55.790;37.572;2023-02-03T08:35:56;99001.64;;;5.48;63.86
20228;BME280;12195;55.790;37.572;2023-02-03T08:38:30;98995.77;;;5.43;64.08
20228;BME280;12195;55.790;37.572;2023-02-03T08:41:11;99012.53;;;5.37;64.34
20228;BME280;12195;55.790;37.572;2023-02-03T08:43:41;99002.67;;;5.25;64.75
20228;BME280;12195;55.790;37.572;2023-02-03T08:46:13;99003.41;;;5.09;64.80
20228;BME280;12195;55.790;37.572;2023-02-03T08:48:46;99003.94;;;4.97;65.16
20228;BME280;12195;55.790;37.572;2023-02-03T08:51:19;98999.32;;;4.83;65.54
20228;BME280;12195;55.790;37.572;2023-02-03T08:53:52;99000.45;;;4.78;65.84
20228;BME280;12195;55.790;37.572;2023-02-03T08:56:24;99001.74;;;4.68;66.47
20228;BME280;12195;55.790;37.572;2023-02-03T08:58:59;99001.95;;;4.63;67.03
20228;BME280;12195;55.790;37.572;2023-02-03T09:01:32;99005.50;;;4.61;67.13
20228;BME280;12195;55.790;37.572;2023-02-03T09:04:05;98997.97;;;4.55;67.27
20228;BME280;12195;55.790;37.572;2023-02-03T09:06:39;98997.05;;;4.56;67.73
20228;BME280;12195;55.790;37.572;2023-02-03T09:09:12;98990.05;;;4.58;67.78
20228;BME280;12195;55.790;37.572;2023-02-03T09:11:45;99000.30;;;4.61;67.78
20228;BME280;12195;55.790;37.572;2023-02-03T09:14:19;99000.91;;;4.67;67.29
20228;BME280;12195;55.790;37.572;2023-02-03T09:16:52;98995.72;;;4.67;66.93
20228;BME280;12195;55.790;37.572;2023-02-03T09:19:24;98994.06;;;4.65;67.61
20228;BME280;12195;55.790;37.572;2023-02-03T09:21:59;98997.40;;;4.68;67.66
20228;BME280;12195;55.790;37.572;2023-02-03T09:24:32;98993.94;;;4.68;67.54
20228;BME280;12195;55.790;37.572;2023-02-03T09:27:04;98998.22;;;4.69;67.61
20228;BME280;12195;55.790;37.572;2023-02-03T09:29:38;98994.92;;;4.65;67.23
20228;BME280;12195;55.790;37.572;2023-02-03T09:32:16;98995.10;;;4.61;67.85
20228;BME280;12195;55.790;37.572;2023-02-03T09:34:45;98994.28;;;4.60;68.08
20228;BME280;12195;55.790;37.572;2023-02-03T09:37:18;98993.54;;;4.57;68.15
20228;BME280;12195;55.790;37.572;2023-02-03T09:39:52;98992.66;;;4.58;68.18
20228;BME280;12195;55.790;37.572;2023-02-03T09:45:28;98986.78;;;4.73;68.71
20228;BME280;12195;55.790;37.572;2023-02-03T09:48:03;98985.38;;;4.86;68.50
20228;BME280;12195;55.790;37.572;2023-02-03T09:50:37;98981.09;;;5.03;69.02
20228;BME280;12195;55.790;37.572;2023-02-03T09:53:38;98984.78;;;5.18;68.53
20228;BME280;12195;55.790;37.572;2023-02-03T09:56:05;98987.13;;;5.24;67.16
20228;BME280;12195;55.790;37.572;2023-02-03T09:58:37;98983.59;;;5.25;66.55
20228;BME280;12195;55.790;37.572;2023-02-03T10:01:11;98982.61;;;5.27;66.66
20228;BME280;12195;55.790;37.572;2023-02-03T10:03:51;98979.19;;;5.27;67.08
20228;BME280;12195;55.790;37.572;2023-02-03T10:06:38;98985.28;;;5.26;66.55
20228;BME280;12195;55.790;37.572;2023-02-03T10:09:28;98988.94;;;5.22;66.38
20228;BME280;12195;55.790;37.572;2023-02-03T10:12:12;98992.74;;;5.15;67.06
20228;BME280;12195;55.790;37.572;2023-02-03T10:14:55;98998.10;;;5.30;66.75
20228;BME280;12195;55.790;37.572;2023-02-03T10:17:31;98992.02;;;5.11;66.82
20228;BME280;12195;55.790;37.572;2023-02-03T10:20:19;98991.44;;;5.05;66.91
20228;BME280;12195;55.790;37.572;2023-02-03T10:22:55;98994.39;;;4.97;67.23
20228;BME280;12195;55.790;37.572;2023-02-03T10:25:32;98983.19;;;4.95;67.81
20228;BME280;12195;55.790;37.572;2023-02-03T10:28:19;98990.23;;;4.93;67.28
20228;BME280;12195;55.790;37.572;2023-02-03T10:30:42;98991.22;;;4.91;67.56
20228;BME280;12195;55.790;37.572;2023-02-03T10:33:17;98987.75;;;4.90;67.71
20228;BME280;12195;55.790;37.572;2023-02-03T10:35:52;98983.12;;;4.97;67.72
20228;BME280;12195;55.790;37.572;2023-02-03T10:41:27;98974.38;;;5.18;67.44
20228;BME280;12195;55.790;37.572;2023-02-03T10:44:04;98975.60;;;5.29;66.79
20228;BME280;12195;55.790;37.572;2023-02-03T10:46:38;98975.44;;;5.32;66.58
20228;BME280;12195;55.790;37.572;2023-02-03T10:49:12;98977.16;;;5.33;66.53
20228;BME280;12195;55.790;37.572;2023-02-03T10:51:52;98974.32;;;5.38;66.04
20228;BME280;12195;55.790;37.572;2023-02-03T10:54:35;98972.51;;;5.58;66.39
20228;BME280;12195;55.790;37.572;2023-02-03T10:57:13;98974.13;;;5.42;65.55
20228;BME280;12195;55.790;37.572;2023-02-03T10:59:47;98971.59;;;5.41;65.33
20228;BME280;12195;55.790;37.572;2023-02-03T11:02:24;98974.45;;;5.35;64.98
20228;BME280;12195;55.790;37.572;2023-02-03T11:07:49;98969.04;;;5.21;65.56
20228;BME280;12195;55.790;37.572;2023-02-03T11:10:37;98960.35;;;5.02;67.48
20228;BME280;12195;55.790;37.572;2023-02-03T11:13:15;98960.35;;;5.02;67.48
20228;BME280;12195;55.790;37.572;2023-02-03T11:15:56;98958.67;;;5.01;68.12
20228;BME280;12195;55.790;37.572;2023-02-03T11:18:50;98960.09;;;5.08;68.31
20228;BME280;12195;55.790;37.572;2023-02-03T11:24:17;98961.86;;;5.26;68.17
20228;BME280;12195;55.790;37.572;2023-02-03T11:27:02;98957.22;;;5.32;67.63
20228;BME280;12195;55.790;37.572;2023-02-03T11:29:34;98962.23;;;5.37;66.85
20228;BME280;12195;55.790;37.572;2023-02-03T11:32:19;98949.34;;;5.34;66.64
20228;BME280;12195;55.790;37.572;2023-02-03T11:35:15;98951.95;;;5.34;66.46
20228;BME280;12195;55.790;37.572;2023-02-03T11:37:40;98956.10;;;5.38;66.29
20228;BME280;12195;55.790;37.572;2023-02-03T11:45:37;98956.73;;;5.43;65.36
20228;BME280;12195;55.790;37.572;2023-02-03T11:48:34;98949.02;;;5.41;65.17
20228;BME280;12195;55.790;37.572;2023-02-03T11:59:52;98947.59;;;5.53;63.54
20228;BME280;12195;55.790;37.572;2023-02-03T12:05:39;98941.59;;;5.51;63.28
20228;BME280;12195;55.790;37.572;2023-02-03T12:13:39;98947.04;;;5.46;62.58
20228;BME280;12195;55.790;37.572;2023-02-03T12:19:20;98948.23;;;5.39;62.65
20228;BME280;12195;55.790;37.572;2023-02-03T12:22:12;98945.06;;;5.33;62.96
20228;BME280;12195;55.790;37.572;2023-02-03T12:24:57;98948.03;;;5.25;63.05
20228;BME280;12195;55.790;37.572;2023-02-03T12:27:40;98937.88;;;5.19;63.18
20228;BME280;12195;55.790;37.572;2023-02-03T12:32:56;98942.58;;;5.11;63.33
20228;BME280;12195;55.790;37.572;2023-02-03T12:35:43;98936.75;;;5.06;63.80
20228;BME280;12195;55.790;37.572;2023-02-03T12:38:29;98943.70;;;5.06;64.14
20228;BME280;12195;55.790;37.572;2023-02-03T12:41:03;98942.74;;;5.08;63.60
20228;BME280;12195;55.790;37.572;2023-02-03T12:43:45;98938.50;;;5.06;63.63
20228;BME280;12195;55.790;37.572;2023-02-03T12:46:27;98935.89;;;5.06;64.20
20228;BME280;12195;55.790;37.572;2023-02-03T12:49:30;98941.83;;;5.09;63.53
20228;BME280;12195;55.790;37.572;2023-02-03T12:51:45;98939.29;;;5.08;63.20
20228;BME280;12195;55.790;37.572;2023-02-03T12:54:49;98935.01;;;5.07;63.16
20228;BME280;12195;55.790;37.572;2023-02-03T13:00:09;98935.20;;;5.02;62.80
20228;BME280;12195;55.790;37.572;2023-02-03T13:08:21;98939.92;;;5.13;63.00
20228;BME280;12195;55.790;37.572;2023-02-03T13:11:02;98937.30;;;4.94;62.79
20228;BME280;12195;55.790;37.572;2023-02-03T13:13:41;98930.54;;;4.90;63.18
20228;BME280;12195;55.790;37.572;2023-02-03T13:16:15;98934.98;;;4.88;63.25
20228;BME280;12195;55.790;37.572;2023-02-03T13:18:52;98935.05;;;4.87;63.57
20228;BME280;12195;55.790;37.572;2023-02-03T13:21:25;98935.17;;;4.84;63.39
20228;BME280;12195;55.790;37.572;2023-02-03T13:23:58;98936.22;;;4.80;63.61
20228;BME280;12195;55.790;37.572;2023-02-03T13:29:35;98940.97;;;4.70;64.79
20228;BME280;12195;55.790;37.572;2023-02-03T13:32:11;98937.55;;;4.70;64.40
20228;BME280;12195;55.790;37.572;2023-02-03T13:34:50;98939.41;;;4.66;64.78
20228;BME280;12195;55.790;37.572;2023-02-03T13:37:36;98939.75;;;4.59;65.36
20228;BME280;12195;55.790;37.572;2023-02-03T13:40:31;98936.52;;;4.54;65.64
20228;BME280;12195;55.790;37.572;2023-02-03T13:43:05;98944.49;;;4.49;65.83
20228;BME280;12195;55.790;37.572;2023-02-03T13:45:40;98937.73;;;4.45;66.02
20228;BME280;12195;55.790;37.572;2023-02-03T13:48:15;98937.27;;;4.36;66.22
20228;BME280;12195;55.790;37.572;2023-02-03T13:50:50;98933.17;;;4.30;66.73
20228;BME280;12195;55.790;37.572;2023-02-03T13:53:24;98940.38;;;4.24;67.55
20228;BME280;12195;55.790;37.572;2023-02-03T13:56:01;98935.39;;;4.19;67.33
20228;BME280;12195;55.790;37.572;2023-02-03T13:58:37;98941.63;;;4.15;67.20
20228;BME280;12195;55.790;37.572;2023-02-03T14:01:29;98947.91;;;4.10;67.62
20228;BME280;12195;55.790;37.572;2023-02-03T14:04:06;98941.20;;;4.04;67.67
20228;BME280;12195;55.790;37.572;2023-02-03T14:12:20;98946.95;;;3.91;68.99
20228;BME280;12195;55.790;37.572;2023-02-03T14:14:55;98952.20;;;3.89;68.87
20228;BME280;12195;55.790;37.572;2023-02-03T14:23:13;98955.59;;;3.70;70.12
20228;BME280;12195;55.790;37.572;2023-02-03T14:25:57;98952.51;;;3.60;71.10
20228;BME280;12195;55.790;37.572;2023-02-03T14:28:28;98948.53;;;3.52;71.43
20228;BME280;12195;55.790;37.572;2023-02-03T14:36:33;98946.58;;;3.35;72.86
20228;BME280;12195;55.790;37.572;2023-02-03T14:47:17;98961.37;;;3.33;74.00
20228;BME280;12195;55.790;37.572;2023-02-03T14:49:56;98956.28;;;3.30;74.22
20228;BME280;12195;55.790;37.572;2023-02-03T14:55:46;98955.56;;;3.27;75.37
20228;BME280;12195;55.790;37.572;2023-02-03T14:58:26;98952.17;;;3.25;75.44
20228;BME280;12195;55.790;37.572;2023-02-03T15:00:57;98953.94;;;3.24;75.33
20228;BME280;12195;55.790;37.572;2023-02-03T15:03:30;98958.31;;;3.22;75.58
20228;BME280;12195;55.790;37.572;2023-02-03T15:06:04;98960.00;;;3.23;76.27
20228;BME280;12195;55.790;37.572;2023-02-03T15:08:39;98960.91;;;3.22;76.29
20228;BME280;12195;55.790;37.572;2023-02-03T15:11:30;98963.51;;;3.22;76.23
20228;BME280;12195;55.790;37.572;2023-02-03T15:14:23;98961.10;;;3.18;76.46
20228;BME280;12195;55.790;37.572;2023-02-03T15:17:01;98955.11;;;3.16;76.53
20228;BME280;12195;55.790;37.572;2023-02-03T15:19:42;98955.27;;;3.11;76.91
20228;BME280;12195;55.790;37.572;2023-02-03T15:22:24;98957.03;;;3.11;76.81
20228;BME280;12195;55.790;37.572;2023-02-03T15:25:00;98952.76;;;3.10;76.34